Time;durP1;ratioP1;P1;durP2;ratioP2;P2;SDS_P1;SDS_P2;PMS_P1;PMS_P2;Temp;Humidity;BMP_temperature;BMP_pressure;BME280_temperature;BME280_humidity;BME280_pressure;Samples;Min_cycle;Max_cycle;Signal;HPM_P1;HPM_P2
2022/05/06 00:01:35;;;;;;;42.65;20.83;;;;;;;;;;5066495;28;20112;-62
2022/05/06 00:04:03;;;;;;;46.50;21.35;;;;;;;;;;5068434;28;20080;-62
2022/05/06 00:06:30;;;;;;;41.08;21.15;;;;;;;;;;5068880;28;20124;-62
2022/05/06 00:08:56;;;;;;;46.72;21.35;;;;;;;;;;5067368;28;20084;-62
2022/05/06 00:11:23;;;;;;;44.88;22.52;;;;;;;;;;5068151;28;20602;-63
2022/05/06 00:13:52;;;;;;;47.67;22.80;;;;;;;;;;5081550;28;20103;-62
2022/05/06 00:16:22;;;;;;;52.83;22.73;;;;;;;;;;5070726;28;20135;-62
2022/05/06 00:18:49;;;;;;;56.00;24.77;;;;;;;;;;5070016;28;20135;-62
2022/05/06 00:21:16;;;;;;;54.72;22.63;;;;;;;;;;5069236;28;20633;-62
2022/05/06 00:23:43;;;;;;;53.92;23.73;;;;;;;;;;5053898;28;20087;-62
2022/05/06 00:26:09;;;;;;;59.42;25.67;;;;;;;;;;5070769;28;20144;-62
2022/05/06 00:28:36;;;;;;;62.33;25.40;;;;;;;;;;5070910;28;20092;-62
2022/05/06 00:31:03;;;;;;;187.82;27.63;;;;;;;;;;5067505;28;20172;-62
2022/05/06 00:33:30;;;;;;;128.32;26.05;;;;;;;;;;5059950;28;20111;-62
2022/05/06 00:36:00;;;;;;;75.97;24.83;;;;;;;;;;5069953;28;20095;-62
2022/05/06 00:38:26;;;;;;;254.77;27.60;;;;;;;;;;5069202;28;20085;-62
2022/05/06 00:40:53;;;;;;;84.55;26.08;;;;;;;;;;5069178;28;20107;-62
2022/05/06 00:43:20;;;;;;;60.67;25.02;;;;;;;;;;5069414;28;20515;-62
2022/05/06 00:45:53;;;;;;;74.97;25.52;;;;;;;;;;5069437;28;20483;-62
2022/05/06 00:48:22;;;;;;;112.00;22.70;;;;;;;;;;5069028;28;20119;-62
2022/05/06 00:50:48;;;;;;;121.63;23.40;;;;;;;;;;5070289;28;20515;-62
2022/05/06 00:53:15;;;;;;;56.85;21.23;;;;;;;;;;5068997;28;20077;-62
2022/05/06 00:55:42;;;;;;;117.50;20.92;;;;;;;;;;5068941;28;20052;-62
2022/05/06 00:58:09;;;;;;;79.78;22.17;;;;;;;;;;5069364;28;20555;-62
2022/05/06 01:00:35;;;;;;;82.93;21.45;;;;;;;;;;5067865;28;20087;-62
2022/05/06 01:03:01;;;;;;;128.93;22.02;;;;;;;;;;5069189;28;20080;-62
2022/05/06 01:05:29;;;;;;;82.75;19.92;;;;;;;;;;5069486;28;20474;-62
2022/05/06 01:07:57;;;;;;;55.42;20.10;;;;;;;;;;5068647;28;20089;-62
2022/05/06 01:10:24;;;;;;;65.32;19.58;;;;;;;;;;5068519;28;20612;-62
2022/05/06 01:12:50;;;;;;;89.30;19.73;;;;;;;;;;5069072;28;20510;-62
2022/05/06 01:15:18;;;;;;;65.18;19.17;;;;;;;;;;5068844;28;20107;-62
2022/05/06 01:17:46;;;;;;;69.25;20.00;;;;;;;;;;5069432;28;20460;-62
2022/05/06 01:20:16;;;;;;;83.82;20.75;;;;;;;;;;5058516;28;20115;-62
2022/05/06 01:22:44;;;;;;;97.80;21.98;;;;;;;;;;5048547;28;20069;-62
2022/05/06 01:25:11;;;;;;;62.33;20.60;;;;;;;;;;5049250;28;20516;-62
2022/05/06 01:27:42;;;;;;;105.65;20.88;;;;;;;;;;5056159;28;20127;-62
2022/05/06 01:30:09;;;;;;;89.25;19.00;;;;;;;;;;5068294;28;20099;-62
2022/05/06 01:32:37;;;;;;;131.38;18.95;;;;;;;;;;5069223;28;20088;-62
2022/05/06 01:35:04;;;;;;;85.20;19.00;;;;;;;;;;5067804;28;20045;-62
2022/05/06 01:37:34;;;;;;;46.47;18.63;;;;;;;;;;5068133;28;20561;-61
2022/05/06 01:40:01;;;;;;;126.97;19.13;;;;;;;;;;5067549;28;20482;-61
2022/05/06 01:42:29;;;;;;;63.50;18.52;;;;;;;;;;5076074;28;20612;-62
2022/05/06 01:44:56;;;;;;;53.17;19.42;;;;;;;;;;5064763;28;20084;-61
2022/05/06 01:47:26;;;;;;;57.87;17.90;;;;;;;;;;5070993;28;20072;-61
2022/05/06 01:49:53;;;;;;;129.07;19.20;;;;;;;;;;5068480;28;20053;-61
2022/05/06 01:52:21;;;;;;;50.85;16.58;;;;;;;;;;5068158;28;20928;-61
2022/05/06 01:54:47;;;;;;;41.60;17.13;;;;;;;;;;5068512;28;20089;-61
2022/05/06 01:57:14;;;;;;;61.10;17.13;;;;;;;;;;5068620;28;20077;-62
2022/05/06 01:59:40;;;;;;;66.40;18.92;;;;;;;;;;5068440;28;20085;-62
2022/05/06 02:02:07;;;;;;;111.15;17.85;;;;;;;;;;5068376;28;20135;-61
2022/05/06 02:07:18;;;;;;;76.82;15.05;;;;;;;;;;5068014;28;20080;-64
2022/05/06 02:09:44;;;;;;;117.53;18.02;;;;;;;;;;5067405;28;20182;-62
2022/05/06 02:12:11;;;;;;;51.85;16.88;;;;;;;;;;5067465;28;20076;-62
2022/05/06 02:14:37;;;;;;;39.33;15.70;;;;;;;;;;5067905;28;20111;-62
2022/05/06 02:17:04;;;;;;;112.82;16.10;;;;;;;;;;5068403;28;20111;-61
2022/05/06 02:19:30;;;;;;;44.38;14.98;;;;;;;;;;5067897;28;20535;-61
2022/05/06 02:21:57;;;;;;;53.83;16.38;;;;;;;;;;5067573;28;20079;-61
2022/05/06 02:24:23;;;;;;;66.53;14.10;;;;;;;;;;5068030;28;20083;-61
2022/05/06 02:26:50;;;;;;;118.18;15.35;;;;;;;;;;5068838;28;20053;-61
2022/05/06 02:29:16;;;;;;;73.75;14.23;;;;;;;;;;5067114;28;20828;-61
2022/05/06 02:34:27;;;;;;;27.83;13.90;;;;;;;;;;5067360;28;20150;-61
2022/05/06 02:36:54;;;;;;;33.67;13.65;;;;;;;;;;5068396;28;20553;-61
2022/05/06 02:39:20;;;;;;;56.75;12.27;;;;;;;;;;5067286;28;20161;-62
2022/05/06 02:41:46;;;;;;;62.08;13.10;;;;;;;;;;5067376;28;20167;-62
2022/05/06 02:44:13;;;;;;;31.80;13.18;;;;;;;;;;5068365;28;20136;-62
2022/05/06 02:46:39;;;;;;;49.15;14.50;;;;;;;;;;5066972;28;20114;-61
2022/05/06 02:49:06;;;;;;;37.38;13.65;;;;;;;;;;5067134;28;20053;-61
2022/05/06 02:51:32;;;;;;;86.00;13.45;;;;;;;;;;5054131;28;20061;-61
2022/05/06 02:53:58;;;;;;;89.65;13.25;;;;;;;;;;5069240;28;20106;-61
2022/05/06 02:56:25;;;;;;;168.80;13.48;;;;;;;;;;5066837;28;20123;-62
2022/05/06 02:58:51;;;;;;;61.97;13.82;;;;;;;;;;5065097;28;20140;-61
2022/05/06 03:01:18;;;;;;;114.53;15.35;;;;;;;;;;5058282;28;20136;-61
2022/05/06 03:03:44;;;;;;;87.55;14.32;;;;;;;;;;5064527;28;20187;-61
2022/05/06 03:06:11;;;;;;;98.80;15.02;;;;;;;;;;5057921;28;20049;-61
2022/05/06 03:08:37;;;;;;;50.08;15.40;;;;;;;;;;5070537;28;20049;-61
2022/05/06 03:11:03;;;;;;;56.00;14.43;;;;;;;;;;5068187;28;20171;-61
2022/05/06 03:13:30;;;;;;;61.38;15.05;;;;;;;;;;5064208;28;20079;-61
2022/05/06 03:15:56;;;;;;;66.80;15.50;;;;;;;;;;5063173;28;20100;-61
2022/05/06 03:18:22;;;;;;;67.35;15.23;;;;;;;;;;5070002;28;20143;-62
2022/05/06 03:20:49;;;;;;;63.97;15.52;;;;;;;;;;5062418;28;20129;-61
2022/05/06 03:23:15;;;;;;;87.85;16.02;;;;;;;;;;5061774;28;20053;-61
2022/05/06 03:25:42;;;;;;;54.70;16.20;;;;;;;;;;5066669;28;20092;-61
2022/05/06 03:28:09;;;;;;;57.25;14.32;;;;;;;;;;5058060;28;20200;-61
2022/05/06 03:30:39;;;;;;;110.25;15.30;;;;;;;;;;5060194;28;20131;-61
2022/05/06 03:33:08;;;;;;;72.75;15.63;;;;;;;;;;5069860;28;20053;-62
2022/05/06 03:35:34;;;;;;;;;;;;;;;;;;5057036;28;20054;-62
2022/05/06 03:38:01;;;;;;;34.75;14.50;;;;;;;;;;5067210;28;45915;-61
2022/05/06 03:40:27;;;;;;;37.35;14.75;;;;;;;;;;5070091;28;20151;-61
2022/05/06 03:42:53;;;;;;;56.97;15.50;;;;;;;;;;5069908;28;20053;-61
2022/05/06 03:45:20;;;;;;;126.57;15.43;;;;;;;;;;5072819;28;20106;-61
2022/05/06 03:47:46;;;;;;;53.83;14.35;;;;;;;;;;5063132;28;20057;-62
2022/05/06 03:52:58;;;;;;;40.88;15.20;;;;;;;;;;5061067;28;20529;-62
2022/05/06 03:55:25;;;;;;;56.83;16.05;;;;;;;;;;5071093;28;20079;-61
2022/05/06 03:57:52;;;;;;;87.47;15.77;;;;;;;;;;5071728;28;20054;-61
2022/05/06 04:00:19;;;;;;;43.88;15.10;;;;;;;;;;5073141;28;20223;-62
2022/05/06 04:02:46;;;;;;;51.22;14.45;;;;;;;;;;5070698;28;20057;-61
2022/05/06 04:05:13;;;;;;;75.03;13.65;;;;;;;;;;5070197;28;20472;-62
2022/05/06 04:07:40;;;;;;;111.05;16.63;;;;;;;;;;5070481;28;20537;-62
2022/05/06 04:10:07;;;;;;;139.75;15.15;;;;;;;;;;5069356;28;20111;-62
2022/05/06 04:12:33;;;;;;;61.97;13.32;;;;;;;;;;5069437;28;20080;-62
2022/05/06 04:15:00;;;;;;;70.55;13.98;;;;;;;;;;5069467;28;20092;-61
2022/05/06 04:17:26;;;;;;;85.60;13.35;;;;;;;;;;5069757;28;20519;-62
2022/05/06 04:25:23;;;;;;;87.97;13.82;;;;;;;;;;5069844;28;20533;-62
2022/05/06 04:27:50;;;;;;;72.22;12.95;;;;;;;;;;5070229;28;20053;-62
2022/05/06 04:30:17;;;;;;;66.57;13.07;;;;;;;;;;5069250;28;20571;-61
2022/05/06 04:32:43;;;;;;;97.45;14.00;;;;;;;;;;5069410;28;20111;-62
2022/05/06 04:35:09;;;;;;;99.97;13.73;;;;;;;;;;5068266;28;20947;-62
2022/05/06 04:37:36;;;;;;;60.90;12.35;;;;;;;;;;5058559;28;20053;-62
2022/05/06 04:40:04;;;;;;;81.65;12.88;;;;;;;;;;5068757;28;20187;-62
2022/05/06 04:42:30;;;;;;;48.92;12.07;;;;;;;;;;5068841;28;20052;-62
2022/05/06 04:44:57;;;;;;;53.50;11.40;;;;;;;;;;5051024;28;20104;-62
2022/05/06 04:47:23;;;;;;;75.93;11.02;;;;;;;;;;5062971;28;20120;-62
2022/05/06 04:49:49;;;;;;;61.85;10.77;;;;;;;;;;5057662;28;20053;-62
2022/05/06 04:52:16;;;;;;;53.35;10.02;;;;;;;;;;5053393;28;20080;-62
2022/05/06 04:54:42;;;;;;;23.48;9.02;;;;;;;;;;5067909;28;20139;-62
2022/05/06 04:57:08;;;;;;;43.67;10.05;;;;;;;;;;5052413;28;20081;-62
2022/05/06 04:59:35;;;;;;;21.10;8.50;;;;;;;;;;5055884;28;20564;-62
2022/05/06 05:02:01;;;;;;;30.58;9.10;;;;;;;;;;5068992;28;20053;-62
2022/05/06 05:04:29;;;;;;;64.25;9.30;;;;;;;;;;5068966;28;20872;-62
2022/05/06 05:06:55;;;;;;;33.92;8.52;;;;;;;;;;5068499;28;20065;-62
2022/05/06 05:09:22;;;;;;;86.97;9.98;;;;;;;;;;5069378;28;20144;-62
2022/05/06 05:11:48;;;;;;;66.57;9.65;;;;;;;;;;5069964;28;20080;-62
2022/05/06 05:14:14;;;;;;;17.33;8.43;;;;;;;;;;5069471;28;20588;-62
2022/05/06 05:16:41;;;;;;;28.80;8.63;;;;;;;;;;5057525;28;20500;-62
2022/05/06 05:19:07;;;;;;;36.60;8.38;;;;;;;;;;5054925;28;20053;-62
2022/05/06 05:21:34;;;;;;;59.92;7.88;;;;;;;;;;5066626;28;20587;-62
2022/05/06 05:24:00;;;;;;;40.00;8.45;;;;;;;;;;5069205;28;20053;-62
2022/05/06 05:26:26;;;;;;;87.82;9.43;;;;;;;;;;5077253;28;20048;-62
2022/05/06 05:28:52;;;;;;;42.97;8.73;;;;;;;;;;5052696;28;20083;-62
2022/05/06 05:31:19;;;;;;;32.63;7.93;;;;;;;;;;5069268;28;20531;-61
2022/05/06 05:33:45;;;;;;;20.23;7.80;;;;;;;;;;5068082;28;20851;-62
2022/05/06 05:36:12;;;;;;;31.05;7.93;;;;;;;;;;5070147;28;20152;-64
2022/05/06 05:38:38;;;;;;;43.53;7.80;;;;;;;;;;5067745;28;20088;-62
2022/05/06 05:41:05;;;;;;;45.92;8.20;;;;;;;;;;5068232;28;20107;-62
2022/05/06 05:49:02;;;;;;;42.30;7.55;;;;;;;;;;5068407;28;20057;-62
2022/05/06 05:51:28;;;;;;;36.55;6.97;;;;;;;;;;5068261;28;20147;-62
2022/05/06 05:53:55;;;;;;;45.85;7.28;;;;;;;;;;5069347;28;20084;-62
2022/05/06 05:56:21;;;;;;;52.63;7.53;;;;;;;;;;5067153;28;20088;-62
2022/05/06 05:58:49;;;;;;;12.73;6.50;;;;;;;;;;5068877;28;20092;-62
2022/05/06 06:01:16;;;;;;;28.38;6.90;;;;;;;;;;5069080;28;20084;-61
2022/05/06 06:03:42;;;;;;;14.25;6.50;;;;;;;;;;5076676;28;20442;-62
2022/05/06 06:06:09;;;;;;;24.65;5.93;;;;;;;;;;5086711;28;20084;-62
2022/05/06 06:08:35;;;;;;;73.60;6.45;;;;;;;;;;5080907;28;20056;-63
2022/05/06 06:11:02;;;;;;;47.97;6.10;;;;;;;;;;5080226;28;20077;-63
2022/05/06 06:13:31;;;;;;;39.30;6.10;;;;;;;;;;5070966;28;20083;-63
2022/05/06 06:15:58;;;;;;;43.83;5.88;;;;;;;;;;5088590;28;20147;-63
2022/05/06 06:18:27;;;;;;;32.50;5.45;;;;;;;;;;5066451;28;20045;-62
2022/05/06 06:20:53;;;;;;;;;;;;;;;;;;5068945;28;20584;-62
2022/05/06 06:23:20;;;;;;;16.05;5.25;;;;;;;;;;5066820;28;45616;-63
2022/05/06 06:25:46;;;;;;;13.25;5.28;;;;;;;;;;5069831;28;20060;-63
2022/05/06 06:28:13;;;;;;;10.07;4.78;;;;;;;;;;5067825;28;20081;-63
2022/05/06 06:30:40;;;;;;;9.48;5.72;;;;;;;;;;5068133;28;20483;-64
2022/05/06 06:33:10;;;;;;;11.50;5.82;;;;;;;;;;5063502;28;20080;-63
2022/05/06 06:35:36;;;;;;;11.57;6.45;;;;;;;;;;5060805;28;20129;-63
2022/05/06 06:38:03;;;;;;;16.05;6.57;;;;;;;;;;5071443;28;20146;-63
2022/05/06 06:40:29;;;;;;;12.65;7.47;;;;;;;;;;5067013;28;20547;-63
2022/05/06 06:43:02;;;;;;;13.27;6.75;;;;;;;;;;5063353;28;20084;-63
2022/05/06 06:45:28;;;;;;;17.33;7.25;;;;;;;;;;5051745;28;20084;-63
2022/05/06 06:47:55;;;;;;;15.52;7.70;;;;;;;;;;5064188;28;20081;-63
2022/05/06 06:50:23;;;;;;;13.77;7.60;;;;;;;;;;5066111;28;20156;-63
2022/05/06 06:52:50;;;;;;;23.80;7.43;;;;;;;;;;5067064;28;20056;-63
2022/05/06 06:55:17;;;;;;;15.18;7.40;;;;;;;;;;5065486;28;20150;-63
2022/05/06 06:57:43;;;;;;;14.75;7.18;;;;;;;;;;5067965;28;20085;-63
2022/05/06 07:00:10;;;;;;;12.75;7.72;;;;;;;;;;5066942;28;20088;-63
2022/05/06 07:02:37;;;;;;;23.73;8.30;;;;;;;;;;5067620;28;20510;-63
2022/05/06 07:05:04;;;;;;;12.45;7.53;;;;;;;;;;5066553;28;20129;-63
2022/05/06 07:13:20;;;;;;;13.80;8.25;;;;;;;;;;5067290;28;20474;-63
2022/05/06 07:15:47;;;;;;;13.23;7.30;;;;;;;;;;5064651;28;20121;-64
2022/05/06 07:18:13;;;;;;;12.98;7.50;;;;;;;;;;5067133;28;20148;-63
2022/05/06 07:20:40;;;;;;;14.30;8.13;;;;;;;;;;5064204;28;20053;-63
2022/05/06 07:23:07;;;;;;;15.10;7.70;;;;;;;;;;5066977;28;20084;-63
2022/05/06 07:25:33;;;;;;;12.23;7.63;;;;;;;;;;5048753;28;20226;-63
2022/05/06 07:27:59;;;;;;;12.15;7.65;;;;;;;;;;5053546;28;20116;-61
2022/05/06 07:30:26;;;;;;;13.10;7.88;;;;;;;;;;5046207;28;20081;-62
2022/05/06 07:32:52;;;;;;;14.18;8.00;;;;;;;;;;5063821;28;20609;-62
2022/05/06 07:35:20;;;;;;;11.32;7.35;;;;;;;;;;5065608;28;20072;-63
2022/05/06 07:37:46;;;;;;;13.10;7.83;;;;;;;;;;5060947;28;20146;-63
2022/05/06 07:40:14;;;;;;;11.38;7.45;;;;;;;;;;5065119;28;20144;-63
2022/05/06 07:42:42;;;;;;;10.70;7.10;;;;;;;;;;5051483;28;20065;-62
2022/05/06 07:45:09;;;;;;;11.55;7.78;;;;;;;;;;5054650;28;20084;-62
2022/05/06 07:47:36;;;;;;;12.77;8.05;;;;;;;;;;5051819;28;20054;-62
2022/05/06 07:50:22;;;;;;;12.23;7.80;;;;;;;;;;5055296;28;20071;-62
2022/05/06 07:52:50;;;;;;;12.73;8.02;;;;;;;;;;5052623;28;20577;-62
2022/05/06 07:55:19;;;;;;;13.60;6.75;;;;;;;;;;5049573;28;20057;-62
2022/05/06 07:57:46;;;;;;;12.35;7.10;;;;;;;;;;5056399;28;20061;-62
2022/05/06 08:00:12;;;;;;;12.20;7.40;;;;;;;;;;5068129;28;20156;-62
2022/05/06 08:05:27;;;;;;;14.52;7.00;;;;;;;;;;5066026;28;20061;-62
2022/05/06 08:07:54;;;;;;;9.93;6.82;;;;;;;;;;5068843;28;20049;-62
2022/05/06 08:10:21;;;;;;;10.32;7.10;;;;;;;;;;5069259;28;20500;-61
2022/05/06 08:12:47;;;;;;;8.90;6.00;;;;;;;;;;5056035;28;20541;-62
2022/05/06 08:15:13;;;;;;;11.60;6.50;;;;;;;;;;5058291;28;20085;-62
2022/05/06 08:17:40;;;;;;;10.45;6.68;;;;;;;;;;5063995;28;20176;-62
2022/05/06 08:20:08;;;;;;;10.40;6.97;;;;;;;;;;5068084;28;20151;-62
2022/05/06 08:22:36;;;;;;;10.05;6.93;;;;;;;;;;5065002;28;20044;-62
2022/05/06 08:25:06;;;;;;;13.75;6.47;;;;;;;;;;5064448;28;20582;-61
2022/05/06 08:27:53;;;;;;;9.27;5.80;;;;;;;;;;5053579;28;20055;-62
2022/05/06 08:30:19;;;;;;;11.52;6.57;;;;;;;;;;5048766;28;20105;-61
2022/05/06 08:32:45;;;;;;;10.43;6.13;;;;;;;;;;5059526;28;20061;-61
2022/05/06 08:35:12;;;;;;;9.93;6.35;;;;;;;;;;5066272;28;20131;-61
2022/05/06 08:37:41;;;;;;;9.25;5.82;;;;;;;;;;5058814;28;20077;-61
2022/05/06 08:40:08;;;;;;;9.18;5.85;;;;;;;;;;5049238;28;20120;-61
2022/05/06 08:42:35;;;;;;;9.65;6.40;;;;;;;;;;5057868;28;20584;-61
2022/05/06 08:53:16;;;;;;;9.65;6.10;;;;;;;;;;5063416;28;20053;-61
2022/05/06 08:55:42;;;;;;;9.93;5.85;;;;;;;;;;5065462;28;20570;-61
2022/05/06 08:58:09;;;;;;;9.80;6.22;;;;;;;;;;5051596;28;20149;-62
2022/05/06 09:00:35;;;;;;;9.38;5.63;;;;;;;;;;5049672;28;20203;-61
2022/05/06 09:03:02;;;;;;;9.15;6.03;;;;;;;;;;5055021;28;20139;-61
2022/05/06 09:05:28;;;;;;;11.38;6.05;;;;;;;;;;5057818;28;20057;-61
2022/05/06 09:07:58;;;;;;;9.38;6.18;;;;;;;;;;5048250;28;20092;-61
2022/05/06 09:10:25;;;;;;;10.98;5.85;;;;;;;;;;5047565;28;20121;-61
2022/05/06 09:12:53;;;;;;;7.85;5.70;;;;;;;;;;5047696;28;20089;-62
2022/05/06 09:18:05;;;;;;;10.35;6.40;;;;;;;;;;5068683;28;20107;-62
2022/05/06 09:20:36;;;;;;;7.53;5.50;;;;;;;;;;5067352;28;20152;-64
2022/05/06 09:23:18;;;;;;;8.15;5.25;;;;;;;;;;5059982;28;20119;-62
2022/05/06 09:25:52;;;;;;;10.80;6.22;;;;;;;;;;5059279;28;20148;-62
2022/05/06 09:28:24;;;;;;;7.78;5.20;;;;;;;;;;5058967;28;20585;-62
2022/05/06 09:30:58;;;;;;;9.52;4.88;;;;;;;;;;5048546;28;20082;-62
2022/05/06 09:33:28;;;;;;;8.63;5.65;;;;;;;;;;5048787;28;20498;-62
2022/05/06 09:35:56;;;;;;;13.27;5.80;;;;;;;;;;5064615;28;20079;-62
2022/05/06 09:38:24;;;;;;;10.60;5.25;;;;;;;;;;5067256;28;20084;-62
2022/05/06 09:40:51;;;;;;;9.43;6.35;;;;;;;;;;5065607;28;20134;-62
2022/05/06 09:43:18;;;;;;;13.40;6.55;;;;;;;;;;5049754;28;20053;-62
2022/05/06 09:45:46;;;;;;;11.25;6.43;;;;;;;;;;5047828;28;20132;-62
2022/05/06 09:48:14;;;;;;;10.55;5.82;;;;;;;;;;5047865;28;20092;-62
2022/05/06 09:50:44;;;;;;;10.57;6.20;;;;;;;;;;5047622;28;20073;-62
2022/05/06 09:53:17;;;;;;;12.25;6.15;;;;;;;;;;5049932;28;20412;-62
2022/05/06 09:55:45;;;;;;;12.02;7.18;;;;;;;;;;5068596;28;20072;-62
2022/05/06 09:58:12;;;;;;;11.27;6.90;;;;;;;;;;5050238;28;20065;-62
2022/05/06 10:00:38;;;;;;;10.63;6.50;;;;;;;;;;5047585;28;20115;-62
2022/05/06 10:03:05;;;;;;;10.35;6.15;;;;;;;;;;5062482;28;20081;-62
2022/05/06 10:05:33;;;;;;;11.53;6.70;;;;;;;;;;5061052;28;20057;-62
2022/05/06 10:08:19;;;;;;;10.77;6.82;;;;;;;;;;5065845;28;20134;-61
2022/05/06 10:11:02;;;;;;;10.85;6.45;;;;;;;;;;5065327;28;20061;-61
2022/05/06 10:13:30;;;;;;;9.88;6.05;;;;;;;;;;5061650;28;20085;-62
2022/05/06 10:15:57;;;;;;;10.13;6.88;;;;;;;;;;5059993;28;20057;-62
2022/05/06 10:18:30;;;;;;;10.45;6.05;;;;;;;;;;5067982;28;20055;-62
2022/05/06 10:20:57;;;;;;;13.70;6.80;;;;;;;;;;5050281;28;20089;-62
2022/05/06 10:23:41;;;;;;;12.77;6.95;;;;;;;;;;5056850;28;20085;-62
2022/05/06 10:26:07;;;;;;;9.90;5.45;;;;;;;;;;5047598;28;20128;-61
2022/05/06 10:34:07;;;;;;;11.88;6.30;;;;;;;;;;5066584;28;20083;-62
2022/05/06 10:36:43;;;;;;;12.20;6.40;;;;;;;;;;5066428;28;20103;-62
2022/05/06 10:39:18;;;;;;;9.65;5.70;;;;;;;;;;5054679;28;20121;-62
2022/05/06 10:42:00;;;;;;;11.20;6.45;;;;;;;;;;5070255;28;20044;-62
2022/05/06 10:44:34;;;;;;;10.60;7.00;;;;;;;;;;5060776;28;20111;-62
2022/05/06 10:47:01;;;;;;;9.30;6.03;;;;;;;;;;5060584;28;20057;-62
2022/05/06 10:49:33;;;;;;;8.50;5.03;;;;;;;;;;5063265;28;20085;-62
2022/05/06 10:52:12;;;;;;;8.80;5.20;;;;;;;;;;5057766;28;20136;-62
2022/05/06 10:54:38;;;;;;;14.02;5.65;;;;;;;;;;5066948;28;20052;-62
2022/05/06 10:57:05;;;;;;;7.85;3.80;;;;;;;;;;5062753;28;20145;-62
2022/05/06 10:59:48;;;;;;;6.25;3.08;;;;;;;;;;5067283;28;20080;-62
2022/05/06 11:02:14;;;;;;;8.73;3.95;;;;;;;;;;5066996;28;20084;-62
2022/05/06 11:04:41;;;;;;;10.20;5.05;;;;;;;;;;5060960;28;20088;-63
2022/05/06 11:07:13;;;;;;;8.35;4.57;;;;;;;;;;5055853;28;20140;-63
2022/05/06 11:09:40;;;;;;;9.40;4.75;;;;;;;;;;5086609;28;20091;-62
2022/05/06 11:12:06;;;;;;;8.15;4.38;;;;;;;;;;5087746;28;20052;-62
2022/05/06 11:14:33;;;;;;;9.57;4.22;;;;;;;;;;5052609;28;20115;-62
2022/05/06 11:17:18;;;;;;;6.43;3.53;;;;;;;;;;5052337;28;20546;-62
2022/05/06 11:19:44;;;;;;;9.57;5.25;;;;;;;;;;5051142;28;20561;-62
2022/05/06 11:22:17;;;;;;;7.78;3.85;;;;;;;;;;5062016;28;20080;-63
2022/05/06 11:24:46;;;;;;;7.15;3.83;;;;;;;;;;5069379;28;20081;-64
2022/05/06 11:27:16;;;;;;;9.25;5.53;;;;;;;;;;5069794;28;20084;-62
2022/05/06 11:29:49;;;;;;;10.88;5.80;;;;;;;;;;5051624;28;20136;-62
2022/05/06 11:32:18;;;;;;;9.30;5.63;;;;;;;;;;5063149;28;20085;-60
2022/05/06 11:34:55;;;;;;;11.40;5.78;;;;;;;;;;5061328;28;20053;-62
2022/05/06 11:37:23;;;;;;;13.27;6.00;;;;;;;;;;5056455;28;20069;-63
2022/05/06 11:39:50;;;;;;;11.23;6.63;;;;;;;;;;5051911;28;20073;-62
2022/05/06 11:42:20;;;;;;;11.60;6.50;;;;;;;;;;5063516;28;20140;-62
2022/05/06 11:47:44;;;;;;;12.65;7.72;;;;;;;;;;5065472;28;20056;-62
2022/05/06 11:50:10;;;;;;;12.23;6.75;;;;;;;;;;5050028;28;20593;-62
2022/05/06 11:52:38;;;;;;;12.63;7.60;;;;;;;;;;5050219;28;20139;-62
2022/05/06 11:55:05;;;;;;;13.10;7.40;;;;;;;;;;5049327;28;20136;-62
2022/05/06 11:57:34;;;;;;;12.43;8.45;;;;;;;;;;5062471;28;20144;-60
2022/05/06 12:00:04;;;;;;;12.30;8.13;;;;;;;;;;5087146;28;20087;-63
2022/05/06 12:02:30;;;;;;;12.82;8.73;;;;;;;;;;5089607;28;20106;-63
2022/05/06 12:04:57;;;;;;;14.13;8.82;;;;;;;;;;5091296;28;20139;-62
2022/05/06 12:07:44;;;;;;;15.15;9.73;;;;;;;;;;5067898;28;20057;-62
2022/05/06 12:10:21;;;;;;;15.60;10.43;;;;;;;;;;5053849;28;20093;-63
2022/05/06 12:13:07;;;;;;;14.55;9.73;;;;;;;;;;5056092;28;20088;-62
2022/05/06 12:15:41;;;;;;;15.45;10.75;;;;;;;;;;5068084;28;20525;-61
2022/05/06 12:18:09;;;;;;;14.75;9.85;;;;;;;;;;5069355;28;20053;-59
2022/05/06 12:20:37;;;;;;;15.73;9.95;;;;;;;;;;5070314;28;20057;-59
2022/05/06 12:23:04;;;;;;;18.52;10.15;;;;;;;;;;5069691;28;20073;-61
2022/05/06 12:25:31;;;;;;;15.98;9.90;;;;;;;;;;5053868;28;20069;-60
2022/05/06 12:28:03;;;;;;;16.92;10.25;;;;;;;;;;5062693;28;20085;-61
2022/05/06 12:30:30;;;;;;;19.98;11.20;;;;;;;;;;5056723;28;20089;-61
2022/05/06 12:33:09;;;;;;;16.75;10.95;;;;;;;;;;5048005;28;21271;-61
2022/05/06 12:35:57;;;;;;;15.05;9.77;;;;;;;;;;5049519;28;20132;-61
2022/05/06 12:38:24;;;;;;;;;;;;;;;;;;5050041;28;20080;-61
2022/05/06 12:40:51;;;;;;;15.68;9.63;;;;;;;;;;5054578;28;44067;-61
2022/05/06 12:43:24;;;;;;;14.18;9.25;;;;;;;;;;5069644;28;20084;-61
2022/05/06 12:45:55;;;;;;;18.15;10.35;;;;;;;;;;5069934;28;20088;-61
2022/05/06 12:51:07;;;;;;;15.55;10.68;;;;;;;;;;5056428;28;20061;-61
2022/05/06 12:53:33;;;;;;;15.65;10.32;;;;;;;;;;5068355;28;20084;-61
2022/05/06 12:56:00;;;;;;;18.27;10.10;;;;;;;;;;5069151;28;20072;-61
2022/05/06 12:58:30;;;;;;;15.80;10.15;;;;;;;;;;5068985;28;20144;-61
2022/05/06 13:00:57;;;;;;;13.77;8.98;;;;;;;;;;5063521;28;20135;-61
2022/05/06 13:03:23;;;;;;;16.45;8.73;;;;;;;;;;5055278;28;20186;-61
2022/05/06 13:05:50;;;;;;;12.65;7.40;;;;;;;;;;5059105;28;20071;-61
2022/05/06 13:08:17;;;;;;;15.65;10.43;;;;;;;;;;5056100;28;20079;-61
2022/05/06 13:10:43;;;;;;;18.30;11.30;;;;;;;;;;5054742;28;20065;-60
2022/05/06 13:13:15;;;;;;;16.75;10.45;;;;;;;;;;5048113;28;20049;-60
2022/05/06 13:15:42;;;;;;;17.55;11.60;;;;;;;;;;5063223;28;20056;-60
2022/05/06 13:18:09;;;;;;;15.07;9.20;;;;;;;;;;5060963;28;20136;-60
2022/05/06 13:20:35;;;;;;;15.82;9.98;;;;;;;;;;5054435;28;20554;-61
2022/05/06 13:23:02;;;;;;;15.77;10.48;;;;;;;;;;5046812;28;20147;-61
2022/05/06 13:25:28;;;;;;;15.00;9.15;;;;;;;;;;5066088;28;20120;-61
2022/05/06 13:27:55;;;;;;;15.32;8.77;;;;;;;;;;5054249;28;20162;-61
2022/05/06 13:30:21;;;;;;;15.75;9.88;;;;;;;;;;5048157;28;20212;-61
2022/05/06 13:32:47;;;;;;;15.43;9.77;;;;;;;;;;5047887;28;20061;-61
2022/05/06 13:35:14;;;;;;;16.35;10.40;;;;;;;;;;5048065;28;20085;-61
2022/05/06 13:37:40;;;;;;;17.17;9.80;;;;;;;;;;5053372;28;20107;-61
2022/05/06 13:40:07;;;;;;;17.02;11.27;;;;;;;;;;5060528;28;20061;-61
2022/05/06 13:42:33;;;;;;;14.88;9.43;;;;;;;;;;5065407;28;20148;-61
2022/05/06 13:45:00;;;;;;;15.43;9.20;;;;;;;;;;5049008;28;20077;-61
2022/05/06 13:47:26;;;;;;;15.57;10.75;;;;;;;;;;5044571;28;20527;-61
2022/05/06 13:49:53;;;;;;;14.57;10.38;;;;;;;;;;5049171;28;20587;-61
2022/05/06 13:52:25;;;;;;;13.60;9.27;;;;;;;;;;5047798;28;20064;-61
2022/05/06 13:54:51;;;;;;;15.98;9.50;;;;;;;;;;5053582;28;20073;-61
2022/05/06 14:00:24;;;;;;;15.32;9.20;;;;;;;;;;5051000;28;20162;-61
2022/05/06 14:02:52;;;;;;;11.02;8.18;;;;;;;;;;5048088;28;20049;-61
2022/05/06 14:05:23;;;;;;;15.73;9.30;;;;;;;;;;5048981;28;20054;-61
2022/05/06 14:07:49;;;;;;;12.98;8.32;;;;;;;;;;5048093;28;20057;-61
2022/05/06 14:10:16;;;;;;;11.75;7.65;;;;;;;;;;5048082;28;20089;-62
2022/05/06 14:12:43;;;;;;;13.10;8.20;;;;;;;;;;5047171;28;20160;-63
2022/05/06 14:15:10;;;;;;;13.13;9.35;;;;;;;;;;5059599;28;20073;-61
2022/05/06 14:17:36;;;;;;;14.23;9.57;;;;;;;;;;5059654;28;20111;-62
2022/05/06 14:20:03;;;;;;;15.68;8.20;;;;;;;;;;5060815;28;20576;-63
2022/05/06 14:22:29;;;;;;;10.90;6.85;;;;;;;;;;5047305;28;20099;-63
2022/05/06 14:24:56;;;;;;;11.45;7.43;;;;;;;;;;5058148;28;20063;-62
2022/05/06 14:27:23;;;;;;;11.48;7.03;;;;;;;;;;5047475;28;20056;-63
2022/05/06 14:29:49;;;;;;;10.48;7.75;;;;;;;;;;5055987;28;20078;-61
2022/05/06 14:32:15;;;;;;;9.98;6.90;;;;;;;;;;5048270;28;20128;-64
2022/05/06 14:34:42;;;;;;;11.65;7.75;;;;;;;;;;5058892;28;20080;-63
2022/05/06 14:37:08;;;;;;;13.07;7.22;;;;;;;;;;5058552;28;20081;-63
2022/05/06 14:39:35;;;;;;;10.88;7.47;;;;;;;;;;5066482;28;20091;-63
2022/05/06 14:42:01;;;;;;;10.52;7.00;;;;;;;;;;5067372;28;20207;-62
2022/05/06 14:44:31;;;;;;;12.95;7.22;;;;;;;;;;5064840;28;20060;-62
2022/05/06 14:46:59;;;;;;;10.25;6.57;;;;;;;;;;5053567;28;20061;-62
2022/05/06 14:49:26;;;;;;;12.73;8.48;;;;;;;;;;5055911;28;20144;-63
2022/05/06 14:51:52;;;;;;;13.45;8.02;;;;;;;;;;5064165;28;20080;-63
2022/05/06 14:54:18;;;;;;;11.25;7.47;;;;;;;;;;5066988;28;20085;-64
2022/05/06 14:56:45;;;;;;;12.85;7.20;;;;;;;;;;5067323;28;20159;-65
2022/05/06 14:59:11;;;;;;;11.77;7.07;;;;;;;;;;5057009;28;21721;-63
2022/05/06 15:01:37;;;;;;;12.05;6.45;;;;;;;;;;5049711;28;20107;-63
2022/05/06 15:04:04;;;;;;;10.88;5.70;;;;;;;;;;5051781;28;20057;-64
2022/05/06 15:06:30;;;;;;;9.55;5.75;;;;;;;;;;5055038;28;20060;-63
2022/05/06 15:08:57;;;;;;;10.52;5.55;;;;;;;;;;5069774;28;20138;-63
2022/05/06 15:11:23;;;;;;;10.98;5.57;;;;;;;;;;5062420;28;20599;-64
2022/05/06 15:13:49;;;;;;;10.88;6.20;;;;;;;;;;5050334;28;20085;-63
2022/05/06 15:16:16;;;;;;;8.73;6.28;;;;;;;;;;5069332;28;20055;-65
2022/05/06 15:21:27;;;;;;;8.98;5.57;;;;;;;;;;5064275;28;20559;-62
2022/05/06 15:23:53;;;;;;;10.23;6.18;;;;;;;;;;5058475;28;20235;-63
2022/05/06 15:26:20;;;;;;;11.85;7.25;;;;;;;;;;5063570;28;20188;-63